createdAt,value
2023-03-05T00:04:13.432Z,5.43
2023-03-05T00:09:15.720Z,6.57
2023-03-05T00:14:17.833Z,7.32
2023-03-05T00:19:20.150Z,7.62
2023-03-05T00:24:22.209Z,7.47
2023-03-05T00:29:25.728Z,6.72
2023-03-05T00:34:28.792Z,8.07
2023-03-05T00:39:31.441Z,5.45
2023-03-05T00:44:33.592Z,6.75
2023-03-05T00:49:35.874Z,6.47
2023-03-05T00:54:37.952Z,6.65
2023-03-05T00:59:41.174Z,7.10
2023-03-05T01:04:45.976Z,7.12
2023-03-05T01:09:48.125Z,7.47
2023-03-05T01:14:50.261Z,7.53
2023-03-05T01:19:52.444Z,6.10
2023-03-05T01:24:54.869Z,7.35
2023-03-05T01:29:57.229Z,6.40
2023-03-05T01:35:00.571Z,6.03
2023-03-05T01:40:03.132Z,6.70
2023-03-05T01:45:12.310Z,5.93
2023-03-05T01:50:20.890Z,5.80
2023-03-05T01:55:26.531Z,5.45
2023-03-05T02:00:35.354Z,5.97
2023-03-05T02:05:39.690Z,5.60
2023-03-05T02:10:47.805Z,5.75
2023-03-05T02:15:51.247Z,6.72
2023-03-05T02:20:56.449Z,5.90
2023-03-05T02:26:00.228Z,5.18
2023-03-05T02:31:02.473Z,6.07
2023-03-05T02:36:05.010Z,6.85
2023-03-05T02:41:07.172Z,5.70
2023-03-05T02:46:09.847Z,6.57
2023-03-05T02:51:12.224Z,6.87
2023-03-05T02:56:14.382Z,5.93
2023-03-05T03:01:16.602Z,6.97
2023-03-05T03:06:18.734Z,6.03
2023-03-05T03:11:21.531Z,6.43
2023-03-05T03:16:23.684Z,5.75
2023-03-05T03:21:26.967Z,5.77
2023-03-05T03:26:29.160Z,6.80
2023-03-05T03:31:31.275Z,6.28
2023-03-05T03:36:34.687Z,6.10
2023-03-05T03:41:40.894Z,5.85
2023-03-05T03:46:44.585Z,6.77
2023-03-05T03:51:48.373Z,6.10
2023-03-05T03:56:50.852Z,6.15
2023-03-05T04:01:53.130Z,4.72
2023-03-05T04:06:55.247Z,5.93
2023-03-05T04:11:57.389Z,4.83
2023-03-05T04:16:59.587Z,4.70
2023-03-05T04:22:01.754Z,5.72
2023-03-05T04:27:04.098Z,6.50
2023-03-05T04:32:06.780Z,5.28
2023-03-05T04:37:08.881Z,4.90
2023-03-05T04:42:11.017Z,6.10
2023-03-05T04:47:13.170Z,6.05
2023-03-05T04:52:15.606Z,5.03
2023-03-05T04:57:18.036Z,4.93
2023-03-05T05:02:20.134Z,5.40
2023-03-05T05:07:22.337Z,5.12
2023-03-05T05:12:24.515Z,6.18
2023-03-05T05:17:28.173Z,5.75
2023-03-05T05:22:30.344Z,6.30
2023-03-05T05:27:32.633Z,6.50
2023-03-05T05:32:35.000Z,6.45
2023-03-05T05:37:37.164Z,6.45
2023-03-05T05:42:39.450Z,6.72
2023-03-05T05:47:41.575Z,6.30
2023-03-05T05:52:43.745Z,6.10
2023-03-05T05:57:45.965Z,6.00
2023-03-05T06:02:48.197Z,6.78
2023-03-05T06:07:50.385Z,6.37
2023-03-05T06:12:52.641Z,6.15
2023-03-05T06:17:54.869Z,6.70
2023-03-05T06:22:57.003Z,6.68
2023-03-05T06:27:59.336Z,6.80
2023-03-05T06:33:01.476Z,7.35
2023-03-05T06:38:03.714Z,6.47
2023-03-05T06:43:06.211Z,7.47
2023-03-05T06:48:08.345Z,7.87
2023-03-05T06:53:10.612Z,7.30
2023-03-05T06:58:12.750Z,8.15
2023-03-05T07:03:15.160Z,6.05
2023-03-05T07:08:17.937Z,6.23
2023-03-05T07:13:21.350Z,7.15
2023-03-05T07:18:23.521Z,7.20
2023-03-05T07:23:25.651Z,6.57
2023-03-05T07:28:27.868Z,8.45
2023-03-05T07:33:30.160Z,7.33
2023-03-05T07:38:33.721Z,9.10
2023-03-05T07:43:35.956Z,7.28
2023-03-05T07:48:38.329Z,7.75
2023-03-05T07:53:40.897Z,6.25
2023-03-05T07:58:43.198Z,5.33
2023-03-05T08:03:46.867Z,7.28
2023-03-05T08:08:49.168Z,7.50
2023-03-05T08:13:51.587Z,6.47
2023-03-05T08:18:58.426Z,5.93
2023-03-05T08:24:03.202Z,6.77
2023-03-05T08:29:07.194Z,7.47
2023-03-05T08:34:09.330Z,6.78
2023-03-05T08:39:11.768Z,6.65
2023-03-05T08:44:13.914Z,8.43
2023-03-05T08:49:15.997Z,8.37
2023-03-05T08:54:18.148Z,6.10
2023-03-05T08:59:20.237Z,8.65
2023-03-05T09:04:22.368Z,7.78
2023-03-05T09:09:25.027Z,8.38
2023-03-05T09:14:30.467Z,8.23
2023-03-05T09:19:32.647Z,7.70
2023-03-05T09:24:34.832Z,9.00
2023-03-05T09:29:36.940Z,8.65
2023-03-05T09:34:39.121Z,8.90
2023-03-05T09:39:41.230Z,8.73
2023-03-05T09:45:02.355Z,8.75
2023-03-05T09:50:07.431Z,8.45
2023-03-05T09:55:14.758Z,8.68
2023-03-05T10:00:25.040Z,8.57
2023-03-05T10:06:04.098Z,8.27
2023-03-05T10:11:17.728Z,8.00
2023-03-05T10:16:41.046Z,7.72
2023-03-05T10:21:54.382Z,7.97
2023-03-05T10:27:02.628Z,5.93
2023-03-05T10:32:31.518Z,7.03
2023-03-05T10:38:04.744Z,6.90
2023-03-05T10:43:36.674Z,5.95
2023-03-05T10:48:58.765Z,5.80
2023-03-05T10:54:25.650Z,5.95
2023-03-05T10:59:28.267Z,6.00
2023-03-05T11:04:36.082Z,5.43
2023-03-05T11:09:38.361Z,5.47
2023-03-05T11:15:02.864Z,5.45
2023-03-05T11:20:26.341Z,7.72
2023-03-05T11:25:30.525Z,7.03
2023-03-05T11:30:37.535Z,6.90
2023-03-05T11:35:42.069Z,6.40
2023-03-05T11:40:45.476Z,5.50
2023-03-05T11:45:54.552Z,6.50
2023-03-05T11:51:01.028Z,7.20
2023-03-05T11:56:39.348Z,7.32
2023-03-05T12:01:54.815Z,6.85
2023-03-05T12:07:00.520Z,7.37
2023-03-05T12:12:18.700Z,8.30
2023-03-05T12:17:28.967Z,7.40
2023-03-05T12:22:39.826Z,6.50
2023-03-05T12:27:42.518Z,7.05
2023-03-05T12:33:03.647Z,7.20
2023-03-05T12:38:32.943Z,5.62
2023-03-05T12:43:35.142Z,5.53
2023-03-05T12:48:43.805Z,5.60
2023-03-05T12:53:52.048Z,4.97
2023-03-05T12:58:58.811Z,5.40
2023-03-05T13:04:10.963Z,5.12
2023-03-05T13:10:18.727Z,5.43
2023-03-05T13:15:23.616Z,5.90
2023-03-05T13:20:42.719Z,5.55
2023-03-05T13:25:47.935Z,4.93
2023-03-05T13:31:02.407Z,5.85
2023-03-05T13:36:05.849Z,5.20
2023-03-05T13:41:28.787Z,5.18
2023-03-05T13:46:39.217Z,4.80
2023-03-05T13:51:46.953Z,4.30
2023-03-05T13:57:08.495Z,4.57
2023-03-05T14:02:19.820Z,4.93
2023-03-05T14:07:52.045Z,4.68
2023-03-05T14:12:54.726Z,3.90
2023-03-05T14:18:15.776Z,4.47
2023-03-05T14:23:33.041Z,3.10
2023-03-05T14:28:37.110Z,4.37
2023-03-05T14:33:40.736Z,4.60
2023-03-05T14:38:43.317Z,4.30
2023-03-05T14:43:45.567Z,4.60
2023-03-05T14:48:48.060Z,4.32
2023-03-05T14:53:51.177Z,4.67
2023-03-05T14:58:53.902Z,4.50
2023-03-05T15:03:56.083Z,4.60
2023-03-05T15:08:58.541Z,4.85
2023-03-05T15:14:00.676Z,4.03
2023-03-05T15:19:03.813Z,4.17
2023-03-05T15:24:06.217Z,3.25
2023-03-05T15:29:09.057Z,3.97
2023-03-05T15:34:14.597Z,4.25
2023-03-05T15:39:27.378Z,3.97
2023-03-05T15:44:29.561Z,3.73
2023-03-05T15:49:31.926Z,2.85
2023-03-05T15:54:35.728Z,3.33
2023-03-05T15:59:39.299Z,3.67
2023-03-05T16:04:41.552Z,3.67
2023-03-05T16:09:50.737Z,4.10
2023-03-05T16:14:52.877Z,3.17
2023-03-05T16:19:55.879Z,3.10
2023-03-05T16:24:59.168Z,2.75
2023-03-05T16:30:01.358Z,4.10
2023-03-05T16:35:03.764Z,2.80
2023-03-05T16:40:07.239Z,3.40
2023-03-05T16:45:10.860Z,3.12
2023-03-05T16:50:13.246Z,2.42
2023-03-05T16:55:15.449Z,2.47
2023-03-05T17:00:18.855Z,2.43
2023-03-05T17:05:21.122Z,2.35
2023-03-05T17:10:23.678Z,2.10
2023-03-05T17:15:25.866Z,2.45
2023-03-05T17:20:28.156Z,1.73
2023-03-05T17:25:30.397Z,2.67
2023-03-05T17:30:33.465Z,2.33
2023-03-05T17:35:35.815Z,2.37
2023-03-05T17:40:38.052Z,2.37
2023-03-05T17:45:40.368Z,2.40
2023-03-05T17:50:44.952Z,2.07
2023-03-05T17:55:47.228Z,2.28
2023-03-05T18:00:49.502Z,2.05
2023-03-05T18:05:59.535Z,2.78
2023-03-05T18:11:02.042Z,2.37
2023-03-05T18:16:04.467Z,2.40
2023-03-05T18:21:06.636Z,2.40
2023-03-05T18:26:08.875Z,2.50
2023-03-05T18:31:11.237Z,2.72
2023-03-05T18:36:15.222Z,2.35
2023-03-05T18:41:27.533Z,2.87
2023-03-05T18:46:30.268Z,2.28
2023-03-05T18:51:33.868Z,2.35
2023-03-05T18:56:36.014Z,2.70
2023-03-05T19:01:38.500Z,2.40
2023-03-05T19:06:40.695Z,2.63
2023-03-05T19:11:42.896Z,2.60
2023-03-05T19:16:45.107Z,2.50
2023-03-05T19:21:49.529Z,2.50
2023-03-05T19:26:55.381Z,2.90
2023-03-05T19:31:57.689Z,3.03
2023-03-05T19:36:59.878Z,2.58
2023-03-05T19:42:04.614Z,2.83
2023-03-05T19:47:07.305Z,2.47
2023-03-05T19:52:09.615Z,2.62
2023-03-05T19:57:11.896Z,2.70
2023-03-05T20:02:14.063Z,2.40
2023-03-05T20:07:19.413Z,2.30
2023-03-05T20:12:23.087Z,2.47
2023-03-05T20:17:34.906Z,2.50
2023-03-05T20:22:37.055Z,2.60
2023-03-05T20:27:39.639Z,2.70
2023-03-05T20:32:41.823Z,2.58
2023-03-05T20:38:30.745Z,2.65
2023-03-05T20:43:36.602Z,2.78
2023-03-05T20:48:48.050Z,2.50
2023-03-05T20:53:58.082Z,2.60
2023-03-05T20:59:03.867Z,2.83
2023-03-05T21:04:06.293Z,2.47
2023-03-05T21:09:08.426Z,3.03
2023-03-05T21:14:10.631Z,2.47
2023-03-05T21:19:12.743Z,2.97
2023-03-05T21:25:13.856Z,3.37
2023-03-05T21:30:17.961Z,3.70
2023-03-05T21:35:21.792Z,4.28
2023-03-05T21:40:24.042Z,3.70
2023-03-05T21:45:28.183Z,4.57
2023-03-05T21:50:31.820Z,4.57
2023-03-05T21:56:38.187Z,3.62
2023-03-05T22:01:40.294Z,3.65
2023-03-05T22:06:42.474Z,3.40
2023-03-05T22:11:44.947Z,3.58
2023-03-05T22:16:47.101Z,2.50
2023-03-05T22:21:51.363Z,2.90
2023-03-05T22:26:53.454Z,3.40
2023-03-05T22:31:57.767Z,3.53
2023-03-05T22:36:59.906Z,3.70
2023-03-05T22:42:05.372Z,3.53
2023-03-05T22:47:07.483Z,3.78
2023-03-05T22:52:09.588Z,3.75
2023-03-05T22:57:11.996Z,3.37
2023-03-05T23:02:14.141Z,3.83
2023-03-05T23:07:25.028Z,3.92
2023-03-05T23:12:30.199Z,3.95
2023-03-05T23:17:32.575Z,4.10
2023-03-05T23:22:35.888Z,4.10
2023-03-05T23:27:38.308Z,3.53
2023-03-05T23:32:40.640Z,3.33
2023-03-05T23:37:43.218Z,4.07
2023-03-05T23:42:46.159Z,3.37
2023-03-05T23:47:49.049Z,4.00
2023-03-05T23:52:51.689Z,3.28
2023-03-05T23:57:55.205Z,3.72
